Newbern, Virginia
Current Conditions -  °F | °C
As of 4:55 AM on Saturday 29 Nov 2014 (Local Time) from KPSK Reporting Station
Clear Clear  
Wind Chill: 26°   Ceiling: Unl
Heat Index: 26°   Visibility: 10mi
Dew Point: 25°   Wind: 0mph
Humidity: 94%   Direction: NA
Pressure: 30.2"   Gusts: NA
Location:  37.07°N, 80.69°W
Report Text: KPSK 290955Z AUTO 00000KT 10SM CLR M03/M04 A3020 RMK AO2 T10321041
Loading
Personal Weather Stations






























Interactive Weather Map New forecast layout! Learn more

10-Day Weather Forecast

Advertisements
Track Severe Weather on mobile